Time;durP1;ratioP1;P1;durP2;ratioP2;P2;SDS_P1;SDS_P2;PMS_P1;PMS_P2;Temp;Humidity;BMP_temperature;BMP_pressure;BME280_temperature;BME280_humidity;BME280_pressure;Samples;Min_cycle;Max_cycle;Signal;HPM_P1;HPM_P2
2023/07/07 00:00:04;;;;;;;;;6.00;4.25;;;;;22.03;100.00;101319.63;5073924;28;46385;-85
2023/07/07 00:02:29;;;;;;;;;8.50;5.00;;;;;22.01;100.00;101324.19;5077039;28;45492;-84
2023/07/07 00:04:54;;;;;;;;;7.75;6.00;;;;;22.02;100.00;101323.22;5077000;28;68643;-85
2023/07/07 00:07:20;;;;;;;;;10.00;4.75;;;;;22.02;100.00;101333.81;5057508;28;45292;-85
2023/07/07 00:09:46;;;;;;;;;7.00;4.50;;;;;21.93;100.00;101320.34;5066758;28;48138;-85
2023/07/07 00:12:13;;;;;;;;;5.00;4.00;;;;;21.93;100.00;101320.34;5078937;27;45779;-84
2023/07/07 00:14:38;;;;;;;;;6.25;5.00;;;;;21.85;100.00;101315.56;5077742;27;45365;-84
2023/07/07 00:17:04;;;;;;;;;5.25;4.00;;;;;21.88;100.00;101325.97;5074470;28;45330;-84
2023/07/07 00:19:32;;;;;;;;;5.50;5.50;;;;;21.93;100.00;101321.19;5070875;28;46547;-84
2023/07/07 00:21:59;;;;;;;;;5.75;4.25;;;;;21.83;100.00;101313.03;5077434;27;45295;-85
2023/07/07 00:24:25;;;;;;;;;8.00;6.50;;;;;21.88;100.00;101322.44;5057458;28;45221;-85
2023/07/07 00:26:51;;;;;;;;;5.00;5.00;;;;;21.85;100.00;101334.97;5067080;27;45363;-85
2023/07/07 00:29:16;;;;;;;;;6.50;6.00;;;;;21.83;100.00;101333.38;5077011;27;45453;-83
2023/07/07 00:31:41;;;;;;;;;7.25;5.00;;;;;21.79;100.00;101331.91;5060118;28;45638;-85
2023/07/07 00:34:06;;;;;;;;;7.25;5.25;;;;;21.72;100.00;101325.31;5076667;28;61267;-83
2023/07/07 00:36:32;;;;;;;;;5.00;4.00;;;;;21.80;100.00;101331.78;5076858;27;60834;-84
2023/07/07 00:38:57;;;;;;;;;6.50;5.75;;;;;21.71;100.00;101323.59;5077304;28;45640;-84
2023/07/07 00:41:22;;;;;;;;;7.00;5.00;;;;;21.67;100.00;101322.94;5078407;27;45512;-85
2023/07/07 00:44:02;;;;;;;;;8.75;5.75;;;;;21.71;100.00;101339.47;5077014;27;47480;-85
2023/07/07 00:46:28;;;;;;;;;8.50;6.50;;;;;21.63;100.00;101324.94;5078225;27;45493;-85
2023/07/07 00:48:55;;;;;;;;;10.25;7.00;;;;;21.66;100.00;101326.56;5072698;28;45593;-84
2023/07/07 00:51:36;;;;;;;;;7.75;7.25;;;;;21.58;100.00;101321.78;5077503;27;45354;-84
2023/07/07 00:54:05;;;;;;;;;9.25;8.00;;;;;21.55;100.00;101318.47;5078915;27;45439;-85
2023/07/07 00:56:35;;;;;;;;;14.00;7.00;;;;;21.53;100.00;101330.97;5060676;28;45346;-84
2023/07/07 00:59:04;;;;;;;;;7.50;6.75;;;;;21.46;100.00;101323.41;5076214;28;46434;-84
2023/07/07 01:01:30;;;;;;;;;9.50;7.25;;;;;21.43;100.00;101320.94;5076668;27;46223;-85
2023/07/07 01:04:05;;;;;;;;;7.75;6.00;;;;;21.36;100.00;101310.84;5076817;28;58956;-85
2023/07/07 01:06:34;;;;;;;;;7.25;6.50;;;;;21.35;100.00;101317.09;5075957;28;45473;-84
2023/07/07 01:09:14;;;;;;;;;8.50;7.00;;;;;21.28;100.00;101300.75;5076401;28;46384;-85
2023/07/07 01:11:40;;;;;;;;;8.00;7.00;;;;;21.30;100.00;101306.78;5077832;27;45354;-86
2023/07/07 01:14:14;;;;;;;;;10.75;7.25;;;;;21.23;100.00;101297.56;5076130;27;45454;-85
2023/07/07 01:17:13;;;;;;;;;9.25;6.00;;;;;21.22;100.00;101304.66;5076924;27;45376;-85
2023/07/07 01:19:57;;;;;;;;;9.00;6.00;;;;;21.24;100.00;101310.69;5077758;27;46488;-84
2023/07/07 01:22:41;;;;;;;;;9.75;6.00;;;;;21.24;100.00;101310.69;5078394;27;45601;-85
2023/07/07 01:25:46;;;;;;;;;10.50;7.00;;;;;21.24;100.00;101313.34;5078655;27;45353;-85
2023/07/07 01:28:22;;;;;;;;;7.25;5.50;;;;;21.22;100.00;101312.59;5076498;28;45402;-85
2023/07/07 01:30:53;;;;;;;;;8.50;5.75;;;;;21.19;100.00;101306.63;5077061;27;46332;-85
2023/07/07 01:33:23;;;;;;;;;7.00;5.00;;;;;21.19;100.00;101317.22;5046524;28;45785;-85
2023/07/07 01:35:48;;;;;;;;;6.50;5.25;;;;;21.15;100.00;101311.28;5040110;28;45365;-86
2023/07/07 01:38:35;;;;;;;;;3.50;1.50;;;;;21.17;100.00;101313.84;5076601;27;45509;-85
2023/07/07 01:41:09;;;;;;;;;6.75;5.75;;;;;21.15;100.00;101308.63;5077627;28;45431;-85
2023/07/07 01:44:00;;;;;;;;;4.75;2.75;;;;;21.17;100.00;101311.19;5078106;28;45448;-85
2023/07/07 01:46:31;;;;;;;;;9.50;7.00;;;;;21.18;100.00;101313.75;5062656;27;45445;-84
2023/07/07 01:49:04;;;;;;;;;9.50;5.00;;;;;21.18;100.00;101310.25;5076513;27;45496;-84
2023/07/07 01:51:39;;;;;;;;;4.00;4.00;;;;;21.10;100.00;101294.00;5076738;28;45564;-84
2023/07/07 01:54:06;;;;;;;;;3.00;3.00;;;;;21.17;100.00;101306.75;5076248;27;45779;-85
2023/07/07 01:56:32;;;;;;;;;5.00;4.25;;;;;21.14;100.00;101306.09;5076450;28;45549;-85
2023/07/07 01:58:58;;;;;;;;;6.50;4.50;;;;;21.12;100.00;101303.56;5076150;28;61640;-85
2023/07/07 02:01:23;;;;;;;;;8.25;5.00;;;;;21.06;100.00;101293.34;5075532;27;57158;-84
2023/07/07 02:03:49;;;;;;;;;4.50;4.00;;;;;20.90;100.00;101290.00;5075697;28;66676;-84
2023/07/07 02:06:14;;;;;;;;;7.75;3.25;;;;;20.94;100.00;101286.22;5077880;28;45511;-85
2023/07/07 02:08:39;;;;;;;;;5.50;4.00;;;;;20.97;100.00;101294.81;5076539;28;45662;-85
2023/07/07 02:11:05;;;;;;;;;5.75;4.75;;;;;20.91;100.00;101289.03;5075261;28;63646;-85
2023/07/07 02:13:30;;;;;;;;;9.00;4.75;;;;;20.86;100.00;101286.69;5076670;27;63485;-84
2023/07/07 02:15:55;;;;;;;;;4.00;3.50;;;;;20.89;100.00;101299.72;5075263;28;45455;-84
2023/07/07 02:18:21;;;;;;;;;5.25;3.00;;;;;20.88;100.00;101301.53;5076602;27;63447;-85
2023/07/07 02:20:46;;;;;;;;;5.50;3.50;;;;;20.86;100.00;101299.94;5074362;27;70286;-85
2023/07/07 02:23:11;;;;;;;;;6.00;4.50;;;;;20.85;100.00;101301.69;5075535;28;49412;-84
2023/07/07 02:25:37;;;;;;;;;2.25;2.00;;;;;20.84;100.00;101299.19;5076537;28;59538;-84
2023/07/07 02:28:02;;;;;;;;;5.00;4.00;;;;;20.83;100.00;101298.31;5058756;28;60285;-84
2023/07/07 02:30:28;;;;;;;;;4.50;3.00;;;;;20.74;100.00;101282.19;5076452;28;45358;-84
2023/07/07 02:32:54;;;;;;;;;2.00;2.00;;;;;20.81;100.00;101291.44;5076406;28;45397;-84
2023/07/07 02:35:19;;;;;;;;;2.75;2.00;;;;;20.71;100.00;101279.72;5077651;28;45337;-84
2023/07/07 02:37:44;;;;;;;;;2.00;1.00;;;;;20.73;100.00;101288.41;5077146;28;45361;-84
2023/07/07 02:40:10;;;;;;;;;4.00;2.25;;;;;20.67;100.00;101276.41;5076688;27;45513;-85
2023/07/07 02:42:36;;;;;;;;;4.00;3.00;;;;;20.59;100.00;101287.44;5076619;28;45466;-85
2023/07/07 02:45:01;;;;;;;;;1.75;1.75;;;;;20.67;100.00;101290.50;5077366;27;45368;-84
2023/07/07 02:47:28;;;;;;;;;4.00;2.00;;;;;20.64;100.00;101287.19;5077146;28;45336;-84
2023/07/07 02:49:54;;;;;;;;;2.00;2.00;;;;;20.54;100.00;101281.63;5075713;27;47244;-84
2023/07/07 02:52:19;;;;;;;;;4.00;4.00;;;;;20.55;100.00;101283.28;5076047;27;63426;-84
2023/07/07 02:54:44;;;;;;;;;3.25;3.25;;;;;20.55;100.00;101282.44;5076632;27;45344;-84
2023/07/07 02:57:10;;;;;;;;;3.00;2.50;;;;;20.53;100.00;101284.34;5074914;28;57372;-85
2023/07/07 02:59:35;;;;;;;;;5.00;3.25;;;;;20.49;100.00;101281.88;5075965;28;73131;-85
2023/07/07 03:02:00;;;;;;;;;5.50;3.00;;;;;20.47;100.00;101277.66;5076306;27;45380;-85
2023/07/07 03:04:26;;;;;;;;;4.25;3.25;;;;;20.44;100.00;101283.13;5076816;27;45390;-84
2023/07/07 03:06:54;;;;;;;;;2.50;2.50;;;;;20.45;100.00;101298.06;5075520;28;45455;-85
2023/07/07 03:09:19;;;;;;;;;3.25;3.00;;;;;20.42;100.00;101299.06;5076524;27;47251;-84
2023/07/07 03:11:45;;;;;;;;;3.00;3.00;;;;;20.33;100.00;101278.47;5074910;28;46532;-85
2023/07/07 03:14:15;;;;;;;;;3.00;2.50;;;;;20.37;100.00;101289.72;5074287;28;49242;-84
2023/07/07 03:16:46;;;;;;;;;2.00;2.00;;;;;20.28;100.00;101281.41;5076726;27;45541;-84
2023/07/07 03:19:12;;;;;;;;;2.00;2.00;;;;;20.28;100.00;101275.25;5074817;28;46410;-84
2023/07/07 03:21:37;;;;;;;;;3.75;1.25;;;;;20.30;100.00;101281.34;5074976;28;45350;-84
2023/07/07 03:24:02;;;;;;;;;4.25;2.25;;;;;20.23;100.00;101277.38;5074249;27;55064;-84
2023/07/07 03:26:30;;;;;;;;;3.75;1.75;;;;;20.26;100.00;101283.31;5075465;28;45544;-83
2023/07/07 03:28:56;;;;;;;;;5.25;2.75;;;;;20.18;100.00;101267.06;5076301;27;46345;-84
2023/07/07 03:31:24;;;;;;;;;4.00;3.00;;;;;20.11;100.00;101266.59;5076489;27;45357;-85
2023/07/07 03:33:51;;;;;;;;;5.00;2.00;;;;;20.16;100.00;101284.81;5074712;28;45484;-85
2023/07/07 03:36:20;;;;;;;;;4.00;2.00;;;;;20.08;100.00;101271.22;5074364;27;45553;-85
2023/07/07 03:38:45;;;;;;;;;3.00;3.00;;;;;20.13;100.00;101277.03;5053776;28;47539;-84
2023/07/07 03:41:13;;;;;;;;;3.25;2.00;;;;;20.13;100.00;101282.34;5054857;28;66732;-85
2023/07/07 03:43:38;;;;;;;;;1.25;1.25;;;;;20.11;100.00;101278.94;5073803;28;45265;-85
2023/07/07 03:46:04;;;;;;;;;2.25;2.25;;;;;20.02;100.00;101264.50;5073972;27;59919;-84
2023/07/07 03:48:30;;;;;;;;;4.25;2.00;;;;;20.07;100.00;101278.28;5076120;27;45415;-85
2023/07/07 03:51:00;;;;;;;;;4.75;2.00;;;;;20.05;100.00;101276.66;5074599;27;45453;-84
2023/07/07 03:53:26;;;;;;;;;4.00;2.75;;;;;20.09;100.00;101283.47;5075769;27;45484;-85
2023/07/07 03:55:52;;;;;;;;;4.50;2.75;;;;;20.00;100.00;101276.09;5074607;28;45480;-85
2023/07/07 03:58:17;;;;;;;;;6.00;2.00;;;;;20.08;100.00;101287.06;5057554;28;47205;-85
2023/07/07 04:00:43;;;;;;;;;2.00;2.00;;;;;20.02;100.00;101282.13;5074165;28;45507;-85
2023/07/07 04:03:08;;;;;;;;;4.00;3.00;;;;;20.00;100.00;101281.38;5074113;28;56726;-85
2023/07/07 04:05:40;;;;;;;;;1.00;1.00;;;;;20.03;100.00;101292.63;5074015;28;52114;-85
2023/07/07 04:08:06;;;;;;;;;4.75;2.75;;;;;19.96;100.00;101282.50;5076025;27;46099;-85
2023/07/07 04:10:31;;;;;;;;;2.75;2.00;;;;;19.98;100.00;101289.38;5073657;28;62680;-84
2023/07/07 04:12:56;;;;;;;;;2.75;2.00;;;;;19.97;100.00;101281.59;5073756;28;52824;-84
2023/07/07 04:15:22;;;;;;;;;3.00;1.00;;;;;19.91;100.00;101283.66;5073662;27;59253;-85
2023/07/07 04:17:47;;;;;;;;;3.50;2.25;;;;;19.93;100.00;101286.19;5056150;28;75771;-84
2023/07/07 04:20:12;;;;;;;;;2.75;2.00;;;;;19.96;100.00;101299.22;5074044;28;45380;-84
2023/07/07 04:22:38;;;;;;;;;2.00;2.00;;;;;19.95;100.00;101299.28;5074080;28;49225;-85
2023/07/07 04:25:08;;;;;;;;;5.75;2.75;;;;;19.94;100.00;101301.09;5074645;28;45408;-84
2023/07/07 04:27:33;;;;;;;;;5.00;2.00;;;;;19.92;100.00;101293.25;5075332;27;45771;-84
2023/07/07 04:29:58;;;;;;;;;2.00;2.00;;;;;19.94;100.00;101300.25;5074799;28;49549;-84
2023/07/07 04:32:24;;;;;;;;;2.50;1.50;;;;;19.94;100.00;101292.31;5075654;28;61523;-84
2023/07/07 04:34:49;;;;;;;;;3.00;3.00;;;;;19.99;100.00;101300.84;5076447;27;45361;-84
2023/07/07 04:37:14;;;;;;;;;7.00;1.75;;;;;19.99;100.00;101303.47;5057444;28;67010;-85
2023/07/07 04:39:40;;;;;;;;;4.00;2.00;;;;;20.01;100.00;101306.88;5075293;28;46131;-85
2023/07/07 04:42:05;;;;;;;;;3.75;2.00;;;;;20.00;100.00;101308.69;5088150;28;54837;-85
2023/07/07 04:44:31;;;;;;;;;3.00;2.50;;;;;20.02;100.00;101311.19;5099053;27;45299;-85
2023/07/07 04:46:56;;;;;;;;;2.50;2.50;;;;;20.00;100.00;101302.50;5097314;28;55980;-85
2023/07/07 04:49:23;;;;;;;;;2.25;2.00;;;;;20.08;100.00;101309.06;5083761;27;44716;-83
2023/07/07 04:51:48;;;;;;;;;1.75;1.50;;;;;20.05;100.00;101301.28;5083991;28;45429;-84
2023/07/07 04:54:14;;;;;;;;;3.00;3.00;;;;;20.07;100.00;101296.78;5089452;27;59780;-83
2023/07/07 04:56:40;;;;;;;;;3.75;2.25;;;;;20.11;100.00;101303.59;5069046;28;47222;-83
2023/07/07 04:59:06;;;;;;;;;3.25;2.25;;;;;20.12;100.00;101304.44;5059519;28;45459;-84
2023/07/07 05:01:32;;;;;;;;;1.00;1.00;;;;;20.13;100.00;101305.28;5077131;28;45548;-84
2023/07/07 05:03:59;;;;;;;;;5.25;3.00;;;;;20.08;100.00;101290.56;5077108;27;45574;-84
2023/07/07 05:06:27;;;;;;;;;4.75;2.00;;;;;20.10;100.00;101290.47;5078261;28;45278;-83
2023/07/07 05:08:52;;;;;;;;;5.00;4.00;;;;;20.18;100.00;101308.50;5077733;28;46051;-83
2023/07/07 05:11:20;;;;;;;;;5.00;2.25;;;;;20.19;100.00;101310.19;5059763;28;45760;-81
2023/07/07 05:13:47;;;;;;;;;4.00;3.75;;;;;20.21;100.00;101305.69;5077875;27;45333;-81
2023/07/07 05:16:13;;;;;;;;;4.00;2.25;;;;;20.22;100.00;101302.06;5078245;27;45478;-81
2023/07/07 05:18:39;;;;;;;;;2.00;2.00;;;;;20.26;100.00;101308.88;5077069;27;45428;-82
2023/07/07 05:21:06;;;;;;;;;3.00;3.00;;;;;20.27;100.00;101311.44;5076400;28;45537;-80
2023/07/07 05:23:31;;;;;;;;;3.75;2.75;;;;;20.28;100.00;101304.34;5077238;27;45349;-81
2023/07/07 05:25:57;;;;;;;;;3.50;2.00;;;;;20.26;100.00;101312.38;5076358;27;65862;-80
2023/07/07 05:28:22;;;;;;;;;4.00;4.00;;;;;20.28;100.00;101314.91;5076417;27;54545;-80
2023/07/07 05:30:48;;;;;;;;;4.00;2.25;;;;;20.30;100.00;101313.91;5077085;27;61342;-81
2023/07/07 05:33:13;;;;;;;;;5.00;2.75;;;;;20.40;100.00;101319.47;5075734;28;45437;-80
2023/07/07 05:35:49;;;;;;;;;3.50;2.75;;;;;20.46;100.00;101324.38;5076128;27;54820;-80
2023/07/07 05:38:16;;;;;;;;;3.25;3.00;;;;;20.51;100.00;101326.75;5077405;28;45409;-81
2023/07/07 05:40:45;;;;;;;;;2.00;2.00;;;;;20.48;100.00;101313.72;5076534;27;45354;-81
2023/07/07 05:43:11;;;;;;;;;3.25;2.00;;;;;20.52;100.00;101312.56;5076287;28;45560;-83
2023/07/07 05:45:36;;;;;;;;;2.00;2.00;;;;;20.58;100.00;101320.13;5077797;27;45348;-81
2023/07/07 05:48:01;;;;;;;;;3.25;3.00;;;;;20.61;100.00;101321.75;5075390;28;64129;-80
2023/07/07 05:50:27;;;;;;;;;4.50;2.50;;;;;20.64;100.00;101327.72;5076509;27;53958;-79
2023/07/07 05:52:53;;;;;;;;;4.00;3.00;;;;;20.65;100.00;101312.69;5076291;27;45525;-80
2023/07/07 05:55:29;;;;;;;;;5.50;2.00;;;;;20.60;100.00;101310.34;5076024;28;63829;-81
2023/07/07 05:57:55;;;;;;;;;1.75;1.75;;;;;20.64;100.00;101325.06;5054478;28;45560;-82
2023/07/07 06:00:21;;;;;;;;;4.75;3.00;;;;;20.67;100.00;101318.72;5073449;27;45495;-81
2023/07/07 06:02:46;;;;;;;;;3.00;3.00;;;;;20.57;100.00;101304.38;5074683;28;45484;-81
2023/07/07 06:05:11;;;;;;;;;5.50;3.25;;;;;20.59;100.00;101319.19;5075066;28;69704;-82
2023/07/07 06:07:37;;;;;;;;;4.25;3.00;;;;;20.55;100.00;101319.47;5075915;28;73203;-80
2023/07/07 06:10:02;;;;;;;;;4.75;4.00;;;;;20.56;100.00;101318.50;5076053;27;70347;-80
2023/07/07 06:12:28;;;;;;;;;3.00;3.00;;;;;20.57;100.00;101323.72;5080252;27;45622;-80
2023/07/07 06:14:53;;;;;;;;;3.75;3.00;;;;;20.49;100.00;101308.31;5057706;28;46347;-80
2023/07/07 06:17:19;;;;;;;;;4.75;2.00;;;;;20.54;100.00;101310.69;5075974;27;45317;-81
2023/07/07 06:19:44;;;;;;;;;5.75;3.25;;;;;20.64;100.00;101321.59;5076879;27;45321;-81
2023/07/07 06:22:09;;;;;;;;;7.50;3.00;;;;;20.71;100.00;101314.09;5075294;27;66090;-81
2023/07/07 06:24:35;;;;;;;;;3.75;3.00;;;;;20.76;100.00;101320.81;5077085;27;47244;-80
2023/07/07 06:27:00;;;;;;;;;4.00;3.25;;;;;20.81;100.00;101320.53;5076039;28;45339;-81
2023/07/07 06:29:26;;;;;;;;;4.00;2.75;;;;;20.82;100.00;101315.16;5077351;27;45424;-81
2023/07/07 06:31:51;;;;;;;;;5.50;3.25;;;;;20.85;100.00;101316.75;5076836;27;45334;-80
2023/07/07 06:34:17;;;;;;;;;2.75;2.75;;;;;20.95;100.00;101317.00;5077153;27;45416;-80
2023/07/07 06:36:42;;;;;;;;;4.25;4.00;;;;;21.00;100.00;101315.75;5076201;27;65755;-80
2023/07/07 06:39:07;;;;;;;;;3.00;3.00;;;;;21.12;100.00;101321.22;5076236;27;59863;-80
2023/07/07 06:41:33;;;;;;;;;4.00;3.00;;;;;21.20;100.00;101326.88;5076073;27;63012;-81
2023/07/07 06:43:58;;;;;;;;;4.25;3.00;;;;;21.26;100.00;101329.97;5075392;28;60226;-80
2023/07/07 06:46:25;;;;;;;;;4.50;3.00;;;;;21.31;100.00;101326.19;5076430;27;45499;-82
